sensor_id;sensor_type;location;lat;lon;timestamp;pressure;altitude;pressure_sealevel;temperature;humidity
73551;BME280;61816;53.582;10.096;2023-03-24T00:01:16;54547.28;;;-144.73;100.00
73551;BME280;61816;53.582;10.096;2023-03-24T00:03:42;54563.69;;;-144.73;100.00
73551;BME280;61816;53.582;10.096;2023-03-24T00:06:10;54604.75;;;-144.73;100.00
73551;BME280;61816;53.582;10.096;2023-03-24T00:08:37;54567.81;;;-144.73;100.00
73551;BME280;61816;53.582;10.096;2023-03-24T00:11:04;54563.69;;;-144.73;100.00
73551;BME280;61816;53.582;10.096;2023-03-24T00:13:30;54559.59;;;-144.73;100.00
73551;BME280;61816;53.582;10.096;2023-03-24T00:15:56;54571.91;;;-144.73;100.00
73551;BME280;61816;53.582;10.096;2023-03-24T00:18:22;54567.81;;;-144.73;100.00
73551;BME280;61816;53.582;10.096;2023-03-24T00:20:55;54567.81;;;-144.73;100.00
73551;BME280;61816;53.582;10.096;2023-03-24T00:23:26;54563.69;;;-144.73;100.00
73551;BME280;61816;53.582;10.096;2023-03-24T00:26:02;54541.13;;;-144.73;100.00
73551;BME280;61816;53.582;10.096;2023-03-24T00:28:29;54547.28;;;-144.73;100.00
73551;BME280;61816;53.582;10.096;2023-03-24T00:30:58;54600.63;;;-144.73;100.00
73551;BME280;61816;53.582;10.096;2023-03-24T00:33:24;54543.16;;;-144.73;100.00
73551;BME280;61816;53.582;10.096;2023-03-24T00:35:49;54563.69;;;-144.73;100.00
73551;BME280;61816;53.582;10.096;2023-03-24T00:38:17;54588.31;;;-144.73;100.00
73551;BME280;61816;53.582;10.096;2023-03-24T00:40:44;54555.47;;;-144.73;100.00
73551;BME280;61816;53.582;10.096;2023-03-24T00:43:09;54584.22;;;-144.73;100.00
73551;BME280;61816;53.582;10.096;2023-03-24T00:45:37;54551.38;;;-144.73;100.00
73551;BME280;61816;53.582;10.096;2023-03-24T00:48:10;54584.22;;;-144.73;100.00
73551;BME280;61816;53.582;10.096;2023-03-24T00:50:35;54551.38;;;-144.73;100.00
73551;BME280;61816;53.582;10.096;2023-03-24T00:53:00;54604.75;;;-144.73;100.00
73551;BME280;61816;53.582;10.096;2023-03-24T00:55:26;54571.91;;;-144.73;100.00
73551;BME280;61816;53.582;10.096;2023-03-24T00:57:52;54576.00;;;-144.73;100.00
73551;BME280;61816;53.582;10.096;2023-03-24T01:00:23;54584.22;;;-144.73;100.00
73551;BME280;61816;53.582;10.096;2023-03-24T01:02:50;54590.38;;;-144.73;100.00
73551;BME280;61816;53.582;10.096;2023-03-24T01:05:20;54543.16;;;-144.73;100.00
73551;BME280;61816;53.582;10.096;2023-03-24T01:07:46;54573.97;;;-144.73;100.00
73551;BME280;61816;53.582;10.096;2023-03-24T01:10:16;54543.16;;;-144.73;100.00
73551;BME280;61816;53.582;10.096;2023-03-24T01:12:41;54594.47;;;-144.73;100.00
73551;BME280;61816;53.582;10.096;2023-03-24T01:15:14;54563.69;;;-144.73;100.00
73551;BME280;61816;53.582;10.096;2023-03-24T01:17:40;54571.91;;;-144.73;100.00
73551;BME280;61816;53.582;10.096;2023-03-24T01:20:06;54559.59;;;-144.73;100.00
73551;BME280;61816;53.582;10.096;2023-03-24T01:22:32;54633.47;;;-144.73;100.00
73551;BME280;61816;53.582;10.096;2023-03-24T01:25:05;54586.28;;;-144.73;100.00
73551;BME280;61816;53.582;10.096;2023-03-24T01:27:31;54576.00;;;-144.73;100.00
73551;BME280;61816;53.582;10.096;2023-03-24T01:30:00;54584.22;;;-144.73;100.00
73551;BME280;61816;53.582;10.096;2023-03-24T01:32:26;54608.84;;;-144.73;100.00
73551;BME280;61816;53.582;10.096;2023-03-24T01:34:52;54563.69;;;-144.73;100.00
73551;BME280;61816;53.582;10.096;2023-03-24T01:37:25;54576.00;;;-144.73;100.00
73551;BME280;61816;53.582;10.096;2023-03-24T01:39:50;54573.97;;;-144.73;100.00
73551;BME280;61816;53.582;10.096;2023-03-24T01:42:25;54576.00;;;-144.73;100.00
73551;BME280;61816;53.582;10.096;2023-03-24T01:44:53;54553.44;;;-144.73;100.00
73551;BME280;61816;53.582;10.096;2023-03-24T01:47:24;54571.91;;;-144.73;100.00
73551;BME280;61816;53.582;10.096;2023-03-24T01:49:53;54567.81;;;-144.73;100.00
73551;BME280;61816;53.582;10.096;2023-03-24T01:52:24;54584.22;;;-144.73;100.00
73551;BME280;61816;53.582;10.096;2023-03-24T01:54:55;54551.38;;;-144.73;100.00
73551;BME280;61816;53.582;10.096;2023-03-24T01:57:30;54596.53;;;-144.73;100.00
73551;BME280;61816;53.582;10.096;2023-03-24T01:59:58;54559.59;;;-144.73;100.00
73551;BME280;61816;53.582;10.096;2023-03-24T02:02:25;54571.91;;;-144.73;100.00
73551;BME280;61816;53.582;10.096;2023-03-24T02:04:56;54584.22;;;-144.73;100.00
73551;BME280;61816;53.582;10.096;2023-03-24T02:07:34;54576.00;;;-144.73;100.00
73551;BME280;61816;53.582;10.096;2023-03-24T02:10:06;54555.47;;;-144.73;100.00
73551;BME280;61816;53.582;10.096;2023-03-24T02:12:32;54567.81;;;-144.73;100.00
73551;BME280;61816;53.582;10.096;2023-03-24T02:14:58;54571.91;;;-144.73;100.00
73551;BME280;61816;53.582;10.096;2023-03-24T02:30:30;54567.81;;;-144.73;100.00
73551;BME280;61816;53.582;10.096;2023-03-24T02:35:29;54608.84;;;-144.73;100.00
73551;BME280;61816;53.582;10.096;2023-03-24T02:40:48;54578.06;;;-144.73;100.00
73551;BME280;61816;53.582;10.096;2023-03-24T02:43:16;54612.97;;;-144.73;100.00
73551;BME280;61816;53.582;10.096;2023-03-24T02:45:48;54584.22;;;-144.73;100.00
73551;BME280;61816;53.582;10.096;2023-03-24T02:48:23;54547.28;;;-144.73;100.00
73551;BME280;61816;53.582;10.096;2023-03-24T02:56:25;54602.69;;;-144.73;100.00
73551;BME280;61816;53.582;10.096;2023-03-24T02:58:57;54580.13;;;-144.73;100.00
73551;BME280;61816;53.582;10.096;2023-03-24T03:01:25;54580.13;;;-144.73;100.00
73551;BME280;61816;53.582;10.096;2023-03-24T03:03:56;54588.31;;;-144.73;100.00
73551;BME280;61816;53.582;10.096;2023-03-24T03:06:26;54573.97;;;-144.73;100.00
73551;BME280;61816;53.582;10.096;2023-03-24T03:08:53;54590.38;;;-144.73;100.00
73551;BME280;61816;53.582;10.096;2023-03-24T03:11:19;54596.53;;;-144.73;100.00
73551;BME280;61816;53.582;10.096;2023-03-24T03:16:45;54621.16;;;-144.73;100.00
73551;BME280;61816;53.582;10.096;2023-03-24T03:19:16;54563.69;;;-144.73;100.00
73551;BME280;61816;53.582;10.096;2023-03-24T03:21:43;54612.97;;;-144.73;100.00
73551;BME280;61816;53.582;10.096;2023-03-24T03:24:13;54600.63;;;-144.73;100.00
73551;BME280;61816;53.582;10.096;2023-03-24T03:26:40;54539.06;;;-144.73;100.00
73551;BME280;61816;53.582;10.096;2023-03-24T03:31:39;54592.44;;;-144.73;100.00
73551;BME280;61816;53.582;10.096;2023-03-24T03:36:37;54612.97;;;-144.73;100.00
73551;BME280;61816;53.582;10.096;2023-03-24T03:41:34;54617.06;;;-144.73;100.00
73551;BME280;61816;53.582;10.096;2023-03-24T03:44:00;54625.28;;;-144.73;100.00
73551;BME280;61816;53.582;10.096;2023-03-24T03:46:25;54522.63;;;-144.73;100.00
73551;BME280;61816;53.582;10.096;2023-03-24T03:48:51;54608.84;;;-144.73;100.00
73551;BME280;61816;53.582;10.096;2023-03-24T03:51:16;54567.81;;;-144.73;100.00
73551;BME280;61816;53.582;10.096;2023-03-24T03:53:45;54567.81;;;-144.73;100.00
73551;BME280;61816;53.582;10.096;2023-03-24T03:56:12;54596.53;;;-144.73;100.00
73551;BME280;61816;53.582;10.096;2023-03-24T03:58:38;54565.75;;;-144.73;100.00
73551;BME280;61816;53.582;10.096;2023-03-24T04:01:06;54584.22;;;-144.73;100.00
73551;BME280;61816;53.582;10.096;2023-03-24T04:03:46;54608.84;;;-144.73;100.00
73551;BME280;61816;53.582;10.096;2023-03-24T04:09:09;54600.63;;;-144.73;100.00
73551;BME280;61816;53.582;10.096;2023-03-24T04:14:27;54555.47;;;-144.73;100.00
73551;BME280;61816;53.582;10.096;2023-03-24T04:19:43;54567.81;;;-144.73;100.00
73551;BME280;61816;53.582;10.096;2023-03-24T04:24:58;54576.00;;;-144.73;100.00
73551;BME280;61816;53.582;10.096;2023-03-24T04:30:14;54565.75;;;-144.73;100.00
73551;BME280;61816;53.582;10.096;2023-03-24T04:32:49;54612.97;;;-144.73;100.00
73551;BME280;61816;53.582;10.096;2023-03-24T04:35:32;54592.44;;;-144.73;100.00
73551;BME280;61816;53.582;10.096;2023-03-24T04:37:59;54612.97;;;-144.73;100.00
73551;BME280;61816;53.582;10.096;2023-03-24T04:40:31;54600.63;;;-144.73;100.00
73551;BME280;61816;53.582;10.096;2023-03-24T04:42:58;54576.00;;;-144.73;100.00
73551;BME280;61816;53.582;10.096;2023-03-24T04:45:25;54608.84;;;-144.73;100.00
73551;BME280;61816;53.582;10.096;2023-03-24T04:47:53;54588.31;;;-144.73;100.00
73551;BME280;61816;53.582;10.096;2023-03-24T04:50:28;54588.31;;;-144.73;100.00
73551;BME280;61816;53.582;10.096;2023-03-24T04:52:56;54582.16;;;-144.73;100.00
73551;BME280;61816;53.582;10.096;2023-03-24T04:55:29;54600.63;;;-144.73;100.00
73551;BME280;61816;53.582;10.096;2023-03-24T04:57:56;54584.22;;;-144.73;100.00
73551;BME280;61816;53.582;10.096;2023-03-24T05:00:21;54588.31;;;-144.73;100.00
73551;BME280;61816;53.582;10.096;2023-03-24T05:02:48;54588.31;;;-144.73;100.00
73551;BME280;61816;53.582;10.096;2023-03-24T05:05:16;54600.63;;;-144.73;100.00
73551;BME280;61816;53.582;10.096;2023-03-24T05:07:41;54608.84;;;-144.73;100.00
73551;BME280;61816;53.582;10.096;2023-03-24T05:10:08;54580.13;;;-144.73;100.00
73551;BME280;61816;53.582;10.096;2023-03-24T05:12:33;54576.00;;;-144.73;100.00
73551;BME280;61816;53.582;10.096;2023-03-24T05:14:58;54600.63;;;-144.73;100.00
73551;BME280;61816;53.582;10.096;2023-03-24T05:17:25;54576.00;;;-144.73;100.00
73551;BME280;61816;53.582;10.096;2023-03-24T05:19:50;54567.81;;;-144.73;100.00
73551;BME280;61816;53.582;10.096;2023-03-24T05:22:15;54584.22;;;-144.73;100.00
73551;BME280;61816;53.582;10.096;2023-03-24T05:24:41;54606.78;;;-144.73;100.00
73551;BME280;61816;53.582;10.096;2023-03-24T05:27:06;54588.31;;;-144.73;100.00
73551;BME280;61816;53.582;10.096;2023-03-24T05:29:32;54596.53;;;-144.73;100.00
73551;BME280;61816;53.582;10.096;2023-03-24T05:31:57;54580.13;;;-144.73;100.00
73551;BME280;61816;53.582;10.096;2023-03-24T05:34:22;54553.44;;;-144.73;100.00
73551;BME280;61816;53.582;10.096;2023-03-24T05:36:48;54559.59;;;-144.73;100.00
73551;BME280;61816;53.582;10.096;2023-03-24T05:39:13;54584.22;;;-144.73;100.00
73551;BME280;61816;53.582;10.096;2023-03-24T05:41:38;54563.69;;;-144.73;100.00
73551;BME280;61816;53.582;10.096;2023-03-24T05:44:04;54588.31;;;-144.73;100.00
73551;BME280;61816;53.582;10.096;2023-03-24T05:46:29;54588.31;;;-144.73;100.00
73551;BME280;61816;53.582;10.096;2023-03-24T05:48:54;54600.63;;;-144.73;100.00
73551;BME280;61816;53.582;10.096;2023-03-24T05:51:20;54580.13;;;-144.73;100.00
73551;BME280;61816;53.582;10.096;2023-03-24T05:53:45;54596.53;;;-144.73;100.00
73551;BME280;61816;53.582;10.096;2023-03-24T05:56:11;54600.63;;;-144.73;100.00
73551;BME280;61816;53.582;10.096;2023-03-24T05:58:36;54551.38;;;-144.73;100.00
73551;BME280;61816;53.582;10.096;2023-03-24T06:01:10;54580.13;;;-144.73;100.00
73551;BME280;61816;53.582;10.096;2023-03-24T06:03:36;54573.97;;;-144.73;100.00
73551;BME280;61816;53.582;10.096;2023-03-24T06:06:06;54588.31;;;-144.73;100.00
73551;BME280;61816;53.582;10.096;2023-03-24T06:08:32;54580.13;;;-144.73;100.00
73551;BME280;61816;53.582;10.096;2023-03-24T06:11:01;54594.47;;;-144.73;100.00
73551;BME280;61816;53.582;10.096;2023-03-24T06:13:27;54617.06;;;-144.73;100.00
73551;BME280;61816;53.582;10.096;2023-03-24T06:15:53;54551.38;;;-144.73;100.00
73551;BME280;61816;53.582;10.096;2023-03-24T06:18:25;54604.75;;;-144.73;100.00
73551;BME280;61816;53.582;10.096;2023-03-24T06:20:54;54596.53;;;-144.73;100.00
73551;BME280;61816;53.582;10.096;2023-03-24T06:23:23;54608.84;;;-144.73;100.00
73551;BME280;61816;53.582;10.096;2023-03-24T06:25:50;54612.97;;;-144.73;100.00
73551;BME280;61816;53.582;10.096;2023-03-24T06:28:15;54637.59;;;-144.73;100.00
73551;BME280;61816;53.582;10.096;2023-03-24T06:30:44;54596.53;;;-144.73;100.00
73551;BME280;61816;53.582;10.096;2023-03-24T06:33:11;54590.38;;;-144.73;100.00
73551;BME280;61816;53.582;10.096;2023-03-24T06:35:36;54580.13;;;-144.73;100.00
73551;BME280;61816;53.582;10.096;2023-03-24T06:38:01;54610.91;;;-144.73;100.00
73551;BME280;61816;53.582;10.096;2023-03-24T06:40:27;54637.59;;;-144.73;100.00
73551;BME280;61816;53.582;10.096;2023-03-24T06:42:52;54641.69;;;-144.73;100.00
73551;BME280;61816;53.582;10.096;2023-03-24T06:45:17;54592.44;;;-144.73;100.00
73551;BME280;61816;53.582;10.096;2023-03-24T06:47:43;54612.97;;;-144.73;100.00
73551;BME280;61816;53.582;10.096;2023-03-24T06:50:09;54602.69;;;-144.73;100.00
73551;BME280;61816;53.582;10.096;2023-03-24T06:52:34;54584.22;;;-144.73;100.00
73551;BME280;61816;53.582;10.096;2023-03-24T06:55:00;54555.47;;;-144.73;100.00
73551;BME280;61816;53.582;10.096;2023-03-24T06:57:25;54600.63;;;-144.73;100.00
73551;BME280;61816;53.582;10.096;2023-03-24T06:59:51;54576.00;;;-144.73;100.00
73551;BME280;61816;53.582;10.096;2023-03-24T07:02:17;54600.63;;;-144.73;100.00
73551;BME280;61816;53.582;10.096;2023-03-24T07:04:42;54584.22;;;-144.73;100.00
73551;BME280;61816;53.582;10.096;2023-03-24T07:07:08;54604.75;;;-144.73;100.00
73551;BME280;61816;53.582;10.096;2023-03-24T07:09:33;54604.75;;;-144.73;100.00
73551;BME280;61816;53.582;10.096;2023-03-24T07:11:58;54584.22;;;-144.73;100.00
73551;BME280;61816;53.582;10.096;2023-03-24T07:14:24;54612.97;;;-144.73;100.00
73551;BME280;61816;53.582;10.096;2023-03-24T07:16:50;54639.63;;;-144.73;100.00
73551;BME280;61816;53.582;10.096;2023-03-24T07:19:15;54588.31;;;-144.73;100.00
73551;BME280;61816;53.582;10.096;2023-03-24T07:21:41;54584.22;;;-144.73;100.00
73551;BME280;61816;53.582;10.096;2023-03-24T07:24:06;54563.69;;;-144.73;100.00
73551;BME280;61816;53.582;10.096;2023-03-24T07:26:31;54580.13;;;-144.73;100.00
73551;BME280;61816;53.582;10.096;2023-03-24T07:28:57;54608.84;;;-144.73;100.00
73551;BME280;61816;53.582;10.096;2023-03-24T07:31:22;54600.63;;;-144.73;100.00
73551;BME280;61816;53.582;10.096;2023-03-24T07:33:48;54555.47;;;-144.73;100.00
73551;BME280;61816;53.582;10.096;2023-03-24T07:36:13;54584.22;;;-144.73;100.00
73551;BME280;61816;53.582;10.096;2023-03-24T07:38:39;54596.53;;;-144.73;100.00
73551;BME280;61816;53.582;10.096;2023-03-24T07:41:04;54553.44;;;-144.73;100.00
73551;BME280;61816;53.582;10.096;2023-03-24T07:43:30;54596.53;;;-144.73;100.00
73551;BME280;61816;53.582;10.096;2023-03-24T07:45:55;54578.06;;;-144.73;100.00
73551;BME280;61816;53.582;10.096;2023-03-24T07:48:20;54629.38;;;-144.73;100.00
73551;BME280;61816;53.582;10.096;2023-03-24T07:50:46;54571.91;;;-144.73;100.00
73551;BME280;61816;53.582;10.096;2023-03-24T07:53:11;54580.13;;;-144.73;100.00
73551;BME280;61816;53.582;10.096;2023-03-24T07:55:37;54588.31;;;-144.73;100.00
73551;BME280;61816;53.582;10.096;2023-03-24T07:58:02;54604.75;;;-144.73;100.00
73551;BME280;61816;53.582;10.096;2023-03-24T08:00:28;54592.44;;;-144.73;99.52
73551;BME280;61816;53.582;10.096;2023-03-24T08:02:54;54543.16;;;-144.73;98.03
73551;BME280;61816;53.582;10.096;2023-03-24T08:05:20;54604.75;;;-144.73;97.54
73551;BME280;61816;53.582;10.096;2023-03-24T08:07:46;54619.13;;;-144.73;97.22
73551;BME280;61816;53.582;10.096;2023-03-24T08:10:18;54576.00;;;-144.73;96.07
73551;BME280;61816;53.582;10.096;2023-03-24T08:12:45;54608.84;;;-144.73;93.93
73551;BME280;61816;53.582;10.096;2023-03-24T08:15:10;54553.44;;;-144.73;94.55
73551;BME280;61816;53.582;10.096;2023-03-24T08:17:37;54612.97;;;-144.73;93.46
73551;BME280;61816;53.582;10.096;2023-03-24T08:20:02;54578.06;;;-144.73;93.24
73551;BME280;61816;53.582;10.096;2023-03-24T08:22:32;54600.63;;;-144.73;93.58
73551;BME280;61816;53.582;10.096;2023-03-24T08:24:57;54563.69;;;-144.73;91.71
73551;BME280;61816;53.582;10.096;2023-03-24T08:27:23;54580.13;;;-144.73;91.35
73551;BME280;61816;53.582;10.096;2023-03-24T08:29:48;54592.44;;;-144.73;91.21
73551;BME280;61816;53.582;10.096;2023-03-24T08:32:13;54608.84;;;-144.73;91.23
73551;BME280;61816;53.582;10.096;2023-03-24T08:34:39;54567.81;;;-144.73;91.36
73551;BME280;61816;53.582;10.096;2023-03-24T08:37:04;54608.84;;;-144.73;90.65
73551;BME280;61816;53.582;10.096;2023-03-24T08:39:30;54584.22;;;-144.73;89.01
73551;BME280;61816;53.582;10.096;2023-03-24T08:42:00;54594.47;;;-144.73;88.58
73551;BME280;61816;53.582;10.096;2023-03-24T08:44:25;54596.53;;;-144.73;88.68
73551;BME280;61816;53.582;10.096;2023-03-24T08:46:51;54612.97;;;-144.73;89.51
73551;BME280;61816;53.582;10.096;2023-03-24T08:49:16;54561.63;;;-144.73;89.12
73551;BME280;61816;53.582;10.096;2023-03-24T08:51:42;54596.53;;;-144.73;88.82
73551;BME280;61816;53.582;10.096;2023-03-24T08:54:07;54592.44;;;-144.73;88.45
73551;BME280;61816;53.582;10.096;2023-03-24T08:56:33;54580.13;;;-144.73;88.26
73551;BME280;61816;53.582;10.096;2023-03-24T08:58:58;54563.69;;;-144.73;87.40
73551;BME280;61816;53.582;10.096;2023-03-24T09:01:24;54563.69;;;-144.73;85.81
73551;BME280;61816;53.582;10.096;2023-03-24T09:03:49;54608.84;;;-144.73;84.92
73551;BME280;61816;53.582;10.096;2023-03-24T09:06:14;54571.91;;;-144.73;83.72
73551;BME280;61816;53.582;10.096;2023-03-24T09:08:40;54604.75;;;-144.73;84.23
73551;BME280;61816;53.582;10.096;2023-03-24T09:11:06;54596.53;;;-144.73;85.28
73551;BME280;61816;53.582;10.096;2023-03-24T09:13:31;54567.81;;;-144.73;83.56
73551;BME280;61816;53.582;10.096;2023-03-24T09:15:58;54573.97;;;-144.73;84.92
73551;BME280;61816;53.582;10.096;2023-03-24T09:18:24;54543.16;;;-144.73;85.39
73551;BME280;61816;53.582;10.096;2023-03-24T09:20:49;54576.00;;;-144.73;84.03
73551;BME280;61816;53.582;10.096;2023-03-24T09:23:15;54580.13;;;-144.73;85.28
73551;BME280;61816;53.582;10.096;2023-03-24T09:25:41;54604.75;;;-144.73;85.00
73551;BME280;61816;53.582;10.096;2023-03-24T09:28:06;54539.06;;;-144.73;85.33
73551;BME280;61816;53.582;10.096;2023-03-24T09:30:32;54555.47;;;-144.73;85.32
73551;BME280;61816;53.582;10.096;2023-03-24T09:32:58;54559.59;;;-144.73;86.05
73551;BME280;61816;53.582;10.096;2023-03-24T09:35:24;54600.63;;;-144.73;85.88
73551;BME280;61816;53.582;10.096;2023-03-24T09:37:49;54580.13;;;-144.73;85.49
73551;BME280;61816;53.582;10.096;2023-03-24T09:40:19;54576.00;;;-144.73;84.01
73551;BME280;61816;53.582;10.096;2023-03-24T09:42:48;54592.44;;;-144.73;83.93
73551;BME280;61816;53.582;10.096;2023-03-24T09:45:16;54580.13;;;-144.73;83.86
73551;BME280;61816;53.582;10.096;2023-03-24T09:47:44;54567.81;;;-144.73;83.81
73551;BME280;61816;53.582;10.096;2023-03-24T09:50:19;54563.69;;;-144.73;83.05
73551;BME280;61816;53.582;10.096;2023-03-24T09:52:47;54576.00;;;-144.73;83.59
73551;BME280;61816;53.582;10.096;2023-03-24T09:55:18;54545.22;;;-144.73;82.80
73551;BME280;61816;53.582;10.096;2023-03-24T09:57:45;54563.69;;;-144.73;80.94
73551;BME280;61816;53.582;10.096;2023-03-24T10:02:41;54596.53;;;-144.73;81.14
73551;BME280;61816;53.582;10.096;2023-03-24T10:05:16;54590.38;;;-144.73;80.73
73551;BME280;61816;53.582;10.096;2023-03-24T10:07:49;54569.84;;;-144.73;80.34
73551;BME280;61816;53.582;10.096;2023-03-24T10:12:51;54526.75;;;-144.73;80.71
73551;BME280;61816;53.582;10.096;2023-03-24T10:15:19;54559.59;;;-144.73;80.53
73551;BME280;61816;53.582;10.096;2023-03-24T10:27:54;54547.28;;;-144.73;79.77
73551;BME280;61816;53.582;10.096;2023-03-24T10:30:32;54549.31;;;-144.73;79.27
73551;BME280;61816;53.582;10.096;2023-03-24T10:32:58;54584.22;;;-144.73;78.56
73551;BME280;61816;53.582;10.096;2023-03-24T10:35:25;54551.38;;;-144.73;78.33
73551;BME280;61816;53.582;10.096;2023-03-24T10:37:51;54582.16;;;-144.73;79.79
73551;BME280;61816;53.582;10.096;2023-03-24T10:40:22;54584.22;;;-144.73;79.88
73551;BME280;61816;53.582;10.096;2023-03-24T10:42:49;54559.59;;;-144.73;78.64
73551;BME280;61816;53.582;10.096;2023-03-24T10:45:34;54612.97;;;-144.73;78.41
73551;BME280;61816;53.582;10.096;2023-03-24T10:48:01;54573.97;;;-144.73;78.95
73551;BME280;61816;53.582;10.096;2023-03-24T10:50:28;54563.69;;;-144.73;78.50
73551;BME280;61816;53.582;10.096;2023-03-24T10:52:54;54518.53;;;-144.73;76.89
73551;BME280;61816;53.582;10.096;2023-03-24T10:55:21;54563.69;;;-144.73;76.69
73551;BME280;61816;53.582;10.096;2023-03-24T10:57:52;54559.59;;;-144.73;76.98
73551;BME280;61816;53.582;10.096;2023-03-24T11:00:20;54524.69;;;-144.73;76.34
73551;BME280;61816;53.582;10.096;2023-03-24T11:02:55;54518.53;;;-144.73;76.05
73551;BME280;61816;53.582;10.096;2023-03-24T11:05:24;54530.84;;;-144.73;75.48
73551;BME280;61816;53.582;10.096;2023-03-24T11:07:53;54584.22;;;-144.73;73.99
73551;BME280;61816;53.582;10.096;2023-03-24T11:10:24;54506.22;;;-144.73;72.55
73551;BME280;61816;53.582;10.096;2023-03-24T11:15:18;54539.06;;;-144.73;71.06
73551;BME280;61816;53.582;10.096;2023-03-24T11:17:45;54576.00;;;-144.73;70.56
73551;BME280;61816;53.582;10.096;2023-03-24T11:20:15;54489.81;;;-144.73;71.84
73551;BME280;61816;53.582;10.096;2023-03-24T11:22:41;54510.31;;;-144.73;71.28
73551;BME280;61816;53.582;10.096;2023-03-24T11:25:07;54543.16;;;-144.73;71.23
73551;BME280;61816;53.582;10.096;2023-03-24T11:27:40;54539.06;;;-144.73;68.82
73551;BME280;61816;53.582;10.096;2023-03-24T11:30:10;54543.16;;;-144.73;67.18
73551;BME280;61816;53.582;10.096;2023-03-24T11:32:36;54539.06;;;-144.73;67.21
73551;BME280;61816;53.582;10.096;2023-03-24T11:35:04;54481.59;;;-144.73;67.28
73551;BME280;61816;53.582;10.096;2023-03-24T11:37:33;54576.00;;;-144.73;67.23
73551;BME280;61816;53.582;10.096;2023-03-24T11:40:33;54545.22;;;-144.73;67.45
73551;BME280;61816;53.582;10.096;2023-03-24T11:42:58;54526.75;;;-144.73;65.31
73551;BME280;61816;53.582;10.096;2023-03-24T11:45:29;54506.22;;;-144.73;65.73
73551;BME280;61816;53.582;10.096;2023-03-24T11:47:58;54518.53;;;-144.73;65.82
73551;BME280;61816;53.582;10.096;2023-03-24T11:50:27;54539.06;;;-144.73;65.81
73551;BME280;61816;53.582;10.096;2023-03-24T11:52:53;54543.16;;;-144.73;66.66
73551;BME280;61816;53.582;10.096;2023-03-24T11:55:23;54539.06;;;-144.73;64.32
73551;BME280;61816;53.582;10.096;2023-03-24T12:00:29;54555.47;;;-144.73;63.70
73551;BME280;61816;53.582;10.096;2023-03-24T12:05:43;54551.38;;;-144.73;64.33
73551;BME280;61816;53.582;10.096;2023-03-24T12:08:21;54555.47;;;-144.73;64.99
73551;BME280;61816;53.582;10.096;2023-03-24T12:13:17;54571.91;;;-144.73;67.35
73551;BME280;61816;53.582;10.096;2023-03-24T12:21:17;54555.47;;;-144.73;67.07
73551;BME280;61816;53.582;10.096;2023-03-24T12:26:14;54539.06;;;-144.73;67.24
73551;BME280;61816;53.582;10.096;2023-03-24T12:31:25;54518.53;;;-144.73;69.65
73551;BME280;61816;53.582;10.096;2023-03-24T12:39:08;54567.81;;;-144.73;68.30
73551;BME280;61816;53.582;10.096;2023-03-24T12:46:31;54604.75;;;-144.73;68.52
73551;BME280;61816;53.582;10.096;2023-03-24T12:49:05;54547.28;;;-144.73;68.72
73551;BME280;61816;53.582;10.096;2023-03-24T12:54:21;54498.00;;;-144.73;69.36
73551;BME280;61816;53.582;10.096;2023-03-24T12:56:57;54539.06;;;-144.73;69.72
73551;BME280;61816;53.582;10.096;2023-03-24T12:59:32;54567.81;;;-144.73;68.23
73551;BME280;61816;53.582;10.096;2023-03-24T13:02:08;54539.06;;;-144.73;67.81
73551;BME280;61816;53.582;10.096;2023-03-24T13:04:36;54539.06;;;-144.73;66.98
73551;BME280;61816;53.582;10.096;2023-03-24T13:07:06;54539.06;;;-144.73;66.81
73551;BME280;61816;53.582;10.096;2023-03-24T13:09:35;54510.31;;;-144.73;64.65
73551;BME280;61816;53.582;10.096;2023-03-24T13:12:23;54502.13;;;-144.73;64.89
73551;BME280;61816;53.582;10.096;2023-03-24T13:17:17;54481.59;;;-144.73;62.30
73551;BME280;61816;53.582;10.096;2023-03-24T13:19:45;54526.75;;;-144.73;62.66
73551;BME280;61816;53.582;10.096;2023-03-24T13:22:13;54522.63;;;-144.73;61.22
73551;BME280;61816;53.582;10.096;2023-03-24T13:24:39;54489.81;;;-144.73;62.77
73551;BME280;61816;53.582;10.096;2023-03-24T13:27:08;54555.47;;;-144.73;59.86
73551;BME280;61816;53.582;10.096;2023-03-24T13:37:19;54514.44;;;-144.73;54.16
73551;BME280;61816;53.582;10.096;2023-03-24T13:39:47;54551.38;;;-144.73;54.01
73551;BME280;61816;53.582;10.096;2023-03-24T13:42:26;54576.00;;;-144.73;53.42
73551;BME280;61816;53.582;10.096;2023-03-24T13:44:53;54539.06;;;-144.73;54.06
73551;BME280;61816;53.582;10.096;2023-03-24T13:47:18;54506.22;;;-144.73;55.06
73551;BME280;61816;53.582;10.096;2023-03-24T13:50:05;54539.06;;;-144.73;52.37
73551;BME280;61816;53.582;10.096;2023-03-24T13:52:36;54604.75;;;-144.73;52.41
73551;BME280;61816;53.582;10.096;2023-03-24T13:55:24;54498.00;;;-144.73;52.93
73551;BME280;61816;53.582;10.096;2023-03-24T13:57:53;54522.63;;;-144.73;51.82
73551;BME280;61816;53.582;10.096;2023-03-24T14:00:21;54547.28;;;-144.73;51.20
73551;BME280;61816;53.582;10.096;2023-03-24T14:02:48;54545.22;;;-144.73;51.72
73551;BME280;61816;53.582;10.096;2023-03-24T14:05:34;54547.28;;;-144.73;50.42
73551;BME280;61816;53.582;10.096;2023-03-24T14:18:13;54514.44;;;-144.73;50.22
73551;BME280;61816;53.582;10.096;2023-03-24T14:20:41;54543.16;;;-144.73;50.80
73551;BME280;61816;53.582;10.096;2023-03-24T14:23:18;54502.13;;;-144.73;51.86
73551;BME280;61816;53.582;10.096;2023-03-24T14:25:51;54504.16;;;-144.73;51.19
73551;BME280;61816;53.582;10.096;2023-03-24T14:28:27;54520.59;;;-144.73;50.08